メインページ
METAR-TAF:

METAR-TAF

空港 :

Grosse Ile Municipal Airport

デトロイト / Grosse Ile, ミシガン州, アメリカ合衆国

緯度: 42-05-55N, 経度: 083-09-40W, 海抜: 180m

現時点の気象観測

当レポートは15分前の15:37(UTC)に作成
の風 8kt
気温 25°C
湿度 83%
気圧 1014 hPa
視程: 16.1km
高度1500ftの千切れ雲あり

METAR: KONZ 211537Z AUTO 18008KT 10SM BKN015 25/22 A2993 RMK AO2 T02490218

時間: 11:52 (15:52 UTC)


TAF: 見つかりません

4,000以上の空港の気象観測と天気予報(METAR報とTAF報)

利用可能な観測所は地図上に黄色い丸と赤い丸で示す。

丸の上にカーソルを重ねると観測所名を参照できる。

次にクリックすると気象観測と天気予報を参照できる。

マップの切り替え:黒色「×」印の緑ボタンをクリックして拡大、「-」印の緑ボタンをクリックして縮小、緑色の三角印をクリックして隣りの地図に切り替え


METAR-TAF: